sensor_id;sensor_type;location;lat;lon;timestamp;P1;durP1;ratioP1;P2;durP2;ratioP2
23163;SDS011;31429;42.674;23.350;2023-04-08T00:00:59;35.70;;;31.70;;
23163;SDS011;31429;42.674;23.350;2023-04-08T00:02:00;38.00;;;31.30;;
23163;SDS011;31429;42.674;23.350;2023-04-08T00:03:01;42.80;;;33.37;;
23163;SDS011;31429;42.674;23.350;2023-04-08T00:04:01;40.22;;;31.80;;
23163;SDS011;31429;42.674;23.350;2023-04-08T00:05:04;40.87;;;32.77;;
23163;SDS011;31429;42.674;23.350;2023-04-08T00:06:05;41.10;;;32.15;;
23163;SDS011;31429;42.674;23.350;2023-04-08T00:07:07;41.72;;;32.13;;
23163;SDS011;31429;42.674;23.350;2023-04-08T00:08:07;36.20;;;30.73;;
23163;SDS011;31429;42.674;23.350;2023-04-08T00:09:08;34.90;;;30.13;;
23163;SDS011;31429;42.674;23.350;2023-04-08T00:10:09;35.70;;;30.90;;
23163;SDS011;31429;42.674;23.350;2023-04-08T00:11:10;39.05;;;31.70;;
23163;SDS011;31429;42.674;23.350;2023-04-08T00:12:11;42.33;;;31.90;;
23163;SDS011;31429;42.674;23.350;2023-04-08T00:13:12;38.13;;;31.60;;
23163;SDS011;31429;42.674;23.350;2023-04-08T00:14:13;40.97;;;30.77;;
23163;SDS011;31429;42.674;23.350;2023-04-08T00:15:14;37.38;;;30.70;;
23163;SDS011;31429;42.674;23.350;2023-04-08T00:16:15;41.20;;;31.90;;
23163;SDS011;31429;42.674;23.350;2023-04-08T00:17:16;38.93;;;30.23;;
23163;SDS011;31429;42.674;23.350;2023-04-08T00:18:17;39.15;;;31.02;;
23163;SDS011;31429;42.674;23.350;2023-04-08T00:19:17;40.40;;;31.43;;
23163;SDS011;31429;42.674;23.350;2023-04-08T00:20:21;36.47;;;31.00;;
23163;SDS011;31429;42.674;23.350;2023-04-08T00:21:22;40.17;;;32.10;;
23163;SDS011;31429;42.674;23.350;2023-04-08T00:22:23;38.10;;;31.17;;
23163;SDS011;31429;42.674;23.350;2023-04-08T00:23:24;38.93;;;30.23;;
23163;SDS011;31429;42.674;23.350;2023-04-08T00:24:24;38.70;;;31.47;;
23163;SDS011;31429;42.674;23.350;2023-04-08T00:25:25;40.17;;;31.57;;
23163;SDS011;31429;42.674;23.350;2023-04-08T00:26:26;35.10;;;30.27;;
23163;SDS011;31429;42.674;23.350;2023-04-08T00:27:26;43.33;;;32.67;;
23163;SDS011;31429;42.674;23.350;2023-04-08T00:28:27;40.60;;;32.40;;
23163;SDS011;31429;42.674;23.350;2023-04-08T00:29:28;41.17;;;33.27;;
23163;SDS011;31429;42.674;23.350;2023-04-08T00:30:29;41.70;;;32.77;;
23163;SDS011;31429;42.674;23.350;2023-04-08T00:31:29;40.87;;;32.90;;
23163;SDS011;31429;42.674;23.350;2023-04-08T00:32:30;37.83;;;32.27;;
23163;SDS011;31429;42.674;23.350;2023-04-08T00:33:30;39.70;;;33.00;;
23163;SDS011;31429;42.674;23.350;2023-04-08T00:34:31;41.97;;;33.17;;
23163;SDS011;31429;42.674;23.350;2023-04-08T00:35:33;41.73;;;33.30;;
23163;SDS011;31429;42.674;23.350;2023-04-08T00:36:34;36.70;;;31.38;;
23163;SDS011;31429;42.674;23.350;2023-04-08T00:37:35;37.57;;;32.00;;
23163;SDS011;31429;42.674;23.350;2023-04-08T00:38:36;37.13;;;32.50;;
23163;SDS011;31429;42.674;23.350;2023-04-08T00:39:36;38.27;;;30.77;;
23163;SDS011;31429;42.674;23.350;2023-04-08T00:40:37;39.37;;;31.57;;
23163;SDS011;31429;42.674;23.350;2023-04-08T00:41:38;36.83;;;32.27;;
23163;SDS011;31429;42.674;23.350;2023-04-08T00:42:38;39.17;;;30.93;;
23163;SDS011;31429;42.674;23.350;2023-04-08T00:43:39;37.93;;;31.73;;
23163;SDS011;31429;42.674;23.350;2023-04-08T00:44:40;39.43;;;32.63;;
23163;SDS011;31429;42.674;23.350;2023-04-08T00:45:40;37.13;;;31.20;;
23163;SDS011;31429;42.674;23.350;2023-04-08T00:46:41;37.27;;;32.07;;
23163;SDS011;31429;42.674;23.350;2023-04-08T00:47:42;36.33;;;31.93;;
23163;SDS011;31429;42.674;23.350;2023-04-08T00:48:43;39.97;;;31.60;;
23163;SDS011;31429;42.674;23.350;2023-04-08T00:49:43;39.23;;;31.50;;
23163;SDS011;31429;42.674;23.350;2023-04-08T00:50:46;40.63;;;32.50;;
23163;SDS011;31429;42.674;23.350;2023-04-08T00:51:47;40.42;;;33.45;;
23163;SDS011;31429;42.674;23.350;2023-04-08T00:52:47;46.30;;;32.80;;
23163;SDS011;31429;42.674;23.350;2023-04-08T00:53:48;39.43;;;32.50;;
23163;SDS011;31429;42.674;23.350;2023-04-08T00:54:49;38.57;;;33.23;;
23163;SDS011;31429;42.674;23.350;2023-04-08T00:55:49;43.80;;;34.97;;
23163;SDS011;31429;42.674;23.350;2023-04-08T00:56:50;39.50;;;33.03;;
23163;SDS011;31429;42.674;23.350;2023-04-08T00:57:51;39.83;;;32.63;;
23163;SDS011;31429;42.674;23.350;2023-04-08T00:58:52;39.05;;;32.42;;
23163;SDS011;31429;42.674;23.350;2023-04-08T00:59:54;38.92;;;31.80;;
23163;SDS011;31429;42.674;23.350;2023-04-08T01:00:57;40.20;;;33.03;;
23163;SDS011;31429;42.674;23.350;2023-04-08T01:02:05;39.58;;;32.70;;
23163;SDS011;31429;42.674;23.350;2023-04-08T01:03:13;39.42;;;32.33;;
23163;SDS011;31429;42.674;23.350;2023-04-08T01:04:21;39.50;;;32.90;;
23163;SDS011;31429;42.674;23.350;2023-04-08T01:05:29;38.10;;;30.50;;
23163;SDS011;31429;42.674;23.350;2023-04-08T01:06:44;39.53;;;31.13;;
23163;SDS011;31429;42.674;23.350;2023-04-08T01:07:50;42.78;;;33.38;;
23163;SDS011;31429;42.674;23.350;2023-04-08T01:08:51;41.72;;;32.40;;
23163;SDS011;31429;42.674;23.350;2023-04-08T01:09:54;40.38;;;31.38;;
23163;SDS011;31429;42.674;23.350;2023-04-08T01:10:57;38.55;;;31.77;;
23163;SDS011;31429;42.674;23.350;2023-04-08T01:12:00;39.60;;;29.75;;
23163;SDS011;31429;42.674;23.350;2023-04-08T01:13:07;38.15;;;28.75;;
23163;SDS011;31429;42.674;23.350;2023-04-08T01:14:11;38.97;;;30.08;;
23163;SDS011;31429;42.674;23.350;2023-04-08T01:15:16;33.42;;;29.60;;
23163;SDS011;31429;42.674;23.350;2023-04-08T01:16:17;35.97;;;31.17;;
23163;SDS011;31429;42.674;23.350;2023-04-08T01:17:19;33.33;;;28.88;;
23163;SDS011;31429;42.674;23.350;2023-04-08T01:18:21;37.35;;;29.85;;
23163;SDS011;31429;42.674;23.350;2023-04-08T01:19:25;36.22;;;30.05;;
23163;SDS011;31429;42.674;23.350;2023-04-08T01:20:28;38.08;;;30.85;;
23163;SDS011;31429;42.674;23.350;2023-04-08T01:21:29;37.63;;;28.85;;
23163;SDS011;31429;42.674;23.350;2023-04-08T01:22:33;37.63;;;30.73;;
23163;SDS011;31429;42.674;23.350;2023-04-08T01:23:52;33.80;;;30.15;;
23163;SDS011;31429;42.674;23.350;2023-04-08T01:24:59;30.88;;;27.42;;
23163;SDS011;31429;42.674;23.350;2023-04-08T01:26:05;31.13;;;26.33;;
23163;SDS011;31429;42.674;23.350;2023-04-08T01:27:06;33.20;;;28.30;;
23163;SDS011;31429;42.674;23.350;2023-04-08T01:28:09;32.10;;;25.58;;
23163;SDS011;31429;42.674;23.350;2023-04-08T01:29:12;29.83;;;25.45;;
23163;SDS011;31429;42.674;23.350;2023-04-08T01:30:14;28.42;;;25.40;;
23163;SDS011;31429;42.674;23.350;2023-04-08T01:31:18;30.45;;;27.02;;
23163;SDS011;31429;42.674;23.350;2023-04-08T01:32:19;32.83;;;26.88;;
23163;SDS011;31429;42.674;23.350;2023-04-08T01:33:20;27.38;;;24.40;;
23163;SDS011;31429;42.674;23.350;2023-04-08T01:34:22;29.20;;;23.92;;
23163;SDS011;31429;42.674;23.350;2023-04-08T01:35:24;29.98;;;25.92;;
23163;SDS011;31429;42.674;23.350;2023-04-08T01:36:25;29.07;;;24.87;;
23163;SDS011;31429;42.674;23.350;2023-04-08T01:37:27;29.20;;;25.48;;
23163;SDS011;31429;42.674;23.350;2023-04-08T01:38:30;34.40;;;27.23;;
23163;SDS011;31429;42.674;23.350;2023-04-08T01:39:32;33.90;;;26.20;;
23163;SDS011;31429;42.674;23.350;2023-04-08T01:40:34;31.00;;;25.63;;
23163;SDS011;31429;42.674;23.350;2023-04-08T01:41:39;29.63;;;25.80;;
23163;SDS011;31429;42.674;23.350;2023-04-08T01:42:40;30.55;;;26.90;;
23163;SDS011;31429;42.674;23.350;2023-04-08T01:43:42;29.13;;;25.95;;
23163;SDS011;31429;42.674;23.350;2023-04-08T01:44:44;32.20;;;26.52;;
23163;SDS011;31429;42.674;23.350;2023-04-08T01:45:46;29.77;;;25.42;;
23163;SDS011;31429;42.674;23.350;2023-04-08T01:46:48;31.08;;;26.90;;
23163;SDS011;31429;42.674;23.350;2023-04-08T01:47:50;33.90;;;26.50;;
23163;SDS011;31429;42.674;23.350;2023-04-08T01:48:52;33.05;;;26.27;;
23163;SDS011;31429;42.674;23.350;2023-04-08T01:49:54;31.08;;;26.10;;
23163;SDS011;31429;42.674;23.350;2023-04-08T01:50:56;29.48;;;24.95;;
23163;SDS011;31429;42.674;23.350;2023-04-08T01:51:59;30.48;;;26.08;;
23163;SDS011;31429;42.674;23.350;2023-04-08T01:53:00;35.47;;;26.13;;
23163;SDS011;31429;42.674;23.350;2023-04-08T01:54:03;31.70;;;26.02;;
23163;SDS011;31429;42.674;23.350;2023-04-08T01:55:05;29.63;;;25.70;;
23163;SDS011;31429;42.674;23.350;2023-04-08T01:56:08;29.25;;;23.77;;
23163;SDS011;31429;42.674;23.350;2023-04-08T01:57:15;28.35;;;24.45;;
23163;SDS011;31429;42.674;23.350;2023-04-08T01:58:22;33.67;;;25.90;;
23163;SDS011;31429;42.674;23.350;2023-04-08T01:59:27;28.65;;;25.50;;
23163;SDS011;31429;42.674;23.350;2023-04-08T02:00:30;32.80;;;26.50;;
23163;SDS011;31429;42.674;23.350;2023-04-08T02:01:34;31.50;;;25.40;;
23163;SDS011;31429;42.674;23.350;2023-04-08T02:02:35;29.77;;;25.93;;
23163;SDS011;31429;42.674;23.350;2023-04-08T02:03:36;30.30;;;25.92;;
23163;SDS011;31429;42.674;23.350;2023-04-08T02:04:37;31.13;;;26.02;;
23163;SDS011;31429;42.674;23.350;2023-04-08T02:05:38;30.67;;;26.30;;
23163;SDS011;31429;42.674;23.350;2023-04-08T02:06:39;30.25;;;25.90;;
23163;SDS011;31429;42.674;23.350;2023-04-08T02:07:40;28.33;;;25.20;;
23163;SDS011;31429;42.674;23.350;2023-04-08T02:08:41;30.90;;;25.03;;
23163;SDS011;31429;42.674;23.350;2023-04-08T02:09:41;28.60;;;25.30;;
23163;SDS011;31429;42.674;23.350;2023-04-08T02:10:42;29.77;;;25.97;;
23163;SDS011;31429;42.674;23.350;2023-04-08T02:11:42;31.20;;;25.80;;
23163;SDS011;31429;42.674;23.350;2023-04-08T02:12:44;29.03;;;25.77;;
23163;SDS011;31429;42.674;23.350;2023-04-08T02:13:46;31.48;;;26.00;;
23163;SDS011;31429;42.674;23.350;2023-04-08T02:14:48;32.00;;;25.25;;
23163;SDS011;31429;42.674;23.350;2023-04-08T02:15:50;31.13;;;25.67;;
23163;SDS011;31429;42.674;23.350;2023-04-08T02:16:54;33.25;;;26.30;;
23163;SDS011;31429;42.674;23.350;2023-04-08T02:18:04;28.80;;;25.27;;
23163;SDS011;31429;42.674;23.350;2023-04-08T02:19:11;29.15;;;24.95;;
23163;SDS011;31429;42.674;23.350;2023-04-08T02:20:18;29.42;;;24.83;;
23163;SDS011;31429;42.674;23.350;2023-04-08T02:21:24;28.10;;;24.83;;
23163;SDS011;31429;42.674;23.350;2023-04-08T02:22:36;29.20;;;25.98;;
23163;SDS011;31429;42.674;23.350;2023-04-08T02:23:44;30.38;;;25.52;;
23163;SDS011;31429;42.674;23.350;2023-04-08T02:24:48;30.08;;;24.63;;
23163;SDS011;31429;42.674;23.350;2023-04-08T02:25:49;28.20;;;24.15;;
23163;SDS011;31429;42.674;23.350;2023-04-08T02:26:54;30.63;;;25.85;;
23163;SDS011;31429;42.674;23.350;2023-04-08T02:27:57;29.20;;;25.02;;
23163;SDS011;31429;42.674;23.350;2023-04-08T02:29:02;29.67;;;24.35;;
23163;SDS011;31429;42.674;23.350;2023-04-08T02:30:05;30.20;;;24.67;;
23163;SDS011;31429;42.674;23.350;2023-04-08T02:31:08;30.67;;;25.02;;
23163;SDS011;31429;42.674;23.350;2023-04-08T02:32:13;30.02;;;25.27;;
23163;SDS011;31429;42.674;23.350;2023-04-08T02:33:17;29.05;;;24.95;;
23163;SDS011;31429;42.674;23.350;2023-04-08T02:34:20;30.58;;;24.67;;
23163;SDS011;31429;42.674;23.350;2023-04-08T02:35:23;30.95;;;24.65;;
23163;SDS011;31429;42.674;23.350;2023-04-08T02:36:24;29.00;;;25.30;;
23163;SDS011;31429;42.674;23.350;2023-04-08T02:37:26;27.48;;;24.50;;
23163;SDS011;31429;42.674;23.350;2023-04-08T02:38:27;27.80;;;24.05;;
23163;SDS011;31429;42.674;23.350;2023-04-08T02:39:30;26.83;;;23.95;;
23163;SDS011;31429;42.674;23.350;2023-04-08T02:40:32;28.95;;;25.02;;
23163;SDS011;31429;42.674;23.350;2023-04-08T02:41:34;30.67;;;25.95;;
23163;SDS011;31429;42.674;23.350;2023-04-08T02:42:35;28.93;;;25.37;;
23163;SDS011;31429;42.674;23.350;2023-04-08T02:43:37;28.10;;;24.07;;
23163;SDS011;31429;42.674;23.350;2023-04-08T02:44:37;28.98;;;25.00;;
23163;SDS011;31429;42.674;23.350;2023-04-08T02:45:39;28.70;;;24.80;;
23163;SDS011;31429;42.674;23.350;2023-04-08T02:46:41;27.58;;;24.58;;
23163;SDS011;31429;42.674;23.350;2023-04-08T02:47:42;30.53;;;25.03;;
23163;SDS011;31429;42.674;23.350;2023-04-08T02:48:42;28.07;;;25.10;;
23163;SDS011;31429;42.674;23.350;2023-04-08T02:49:43;30.50;;;25.37;;
23163;SDS011;31429;42.674;23.350;2023-04-08T02:50:43;28.23;;;25.23;;
23163;SDS011;31429;42.674;23.350;2023-04-08T02:51:44;34.50;;;24.00;;
23163;SDS011;31429;42.674;23.350;2023-04-08T02:52:45;28.13;;;25.13;;
23163;SDS011;31429;42.674;23.350;2023-04-08T02:53:45;28.00;;;24.53;;
23163;SDS011;31429;42.674;23.350;2023-04-08T02:54:46;32.27;;;25.97;;
23163;SDS011;31429;42.674;23.350;2023-04-08T02:55:47;28.77;;;25.60;;
23163;SDS011;31429;42.674;23.350;2023-04-08T02:56:47;27.57;;;24.63;;
23163;SDS011;31429;42.674;23.350;2023-04-08T02:57:48;27.73;;;23.70;;
23163;SDS011;31429;42.674;23.350;2023-04-08T02:58:50;29.80;;;25.97;;
23163;SDS011;31429;42.674;23.350;2023-04-08T02:59:51;31.00;;;25.52;;
23163;SDS011;31429;42.674;23.350;2023-04-08T03:00:51;31.33;;;26.27;;
23163;SDS011;31429;42.674;23.350;2023-04-08T03:01:52;34.40;;;27.80;;
23163;SDS011;31429;42.674;23.350;2023-04-08T03:02:53;37.33;;;29.90;;
23163;SDS011;31429;42.674;23.350;2023-04-08T03:03:54;41.75;;;31.45;;
23163;SDS011;31429;42.674;23.350;2023-04-08T03:04:54;32.00;;;26.87;;
23163;SDS011;31429;42.674;23.350;2023-04-08T03:05:55;33.93;;;28.60;;
23163;SDS011;31429;42.674;23.350;2023-04-08T03:06:56;33.58;;;27.67;;
23163;SDS011;31429;42.674;23.350;2023-04-08T03:07:57;37.03;;;29.50;;
23163;SDS011;31429;42.674;23.350;2023-04-08T03:08:58;35.50;;;29.13;;
23163;SDS011;31429;42.674;23.350;2023-04-08T03:09:58;33.17;;;28.40;;
23163;SDS011;31429;42.674;23.350;2023-04-08T03:10:59;37.33;;;29.07;;
23163;SDS011;31429;42.674;23.350;2023-04-08T03:12:00;38.37;;;28.10;;
23163;SDS011;31429;42.674;23.350;2023-04-08T03:13:00;31.80;;;26.83;;
23163;SDS011;31429;42.674;23.350;2023-04-08T03:14:02;35.87;;;28.83;;
23163;SDS011;31429;42.674;23.350;2023-04-08T03:15:03;32.60;;;28.30;;
23163;SDS011;31429;42.674;23.350;2023-04-08T03:16:05;30.17;;;26.77;;
23163;SDS011;31429;42.674;23.350;2023-04-08T03:17:06;33.13;;;27.38;;
23163;SDS011;31429;42.674;23.350;2023-04-08T03:18:07;35.77;;;29.57;;
23163;SDS011;31429;42.674;23.350;2023-04-08T03:19:08;35.57;;;28.67;;
23163;SDS011;31429;42.674;23.350;2023-04-08T03:20:09;35.90;;;29.57;;
23163;SDS011;31429;42.674;23.350;2023-04-08T03:21:10;36.97;;;29.77;;
23163;SDS011;31429;42.674;23.350;2023-04-08T03:22:11;40.30;;;31.43;;
23163;SDS011;31429;42.674;23.350;2023-04-08T03:23:12;41.15;;;32.50;;
23163;SDS011;31429;42.674;23.350;2023-04-08T03:24:12;38.63;;;32.43;;
23163;SDS011;31429;42.674;23.350;2023-04-08T03:25:13;39.30;;;30.90;;
23163;SDS011;31429;42.674;23.350;2023-04-08T03:26:14;39.40;;;30.57;;
23163;SDS011;31429;42.674;23.350;2023-04-08T03:27:14;42.93;;;33.20;;
23163;SDS011;31429;42.674;23.350;2023-04-08T03:28:15;40.77;;;32.43;;
23163;SDS011;31429;42.674;23.350;2023-04-08T03:29:17;38.47;;;30.50;;
23163;SDS011;31429;42.674;23.350;2023-04-08T03:30:18;42.22;;;31.23;;
23163;SDS011;31429;42.674;23.350;2023-04-08T03:31:18;41.57;;;32.07;;
23163;SDS011;31429;42.674;23.350;2023-04-08T03:32:20;38.45;;;31.30;;
23163;SDS011;31429;42.674;23.350;2023-04-08T03:33:21;34.80;;;30.10;;
23163;SDS011;31429;42.674;23.350;2023-04-08T03:34:21;35.57;;;30.50;;
23163;SDS011;31429;42.674;23.350;2023-04-08T03:35:22;40.13;;;30.90;;
23163;SDS011;31429;42.674;23.350;2023-04-08T03:36:23;37.70;;;31.90;;
23163;SDS011;31429;42.674;23.350;2023-04-08T03:37:24;36.63;;;31.10;;
23163;SDS011;31429;42.674;23.350;2023-04-08T03:38:24;37.07;;;31.43;;
23163;SDS011;31429;42.674;23.350;2023-04-08T03:39:25;37.70;;;29.77;;
23163;SDS011;31429;42.674;23.350;2023-04-08T03:40:25;38.33;;;30.73;;
23163;SDS011;31429;42.674;23.350;2023-04-08T03:41:26;37.53;;;30.03;;
23163;SDS011;31429;42.674;23.350;2023-04-08T03:42:27;36.07;;;30.27;;
23163;SDS011;31429;42.674;23.350;2023-04-08T03:43:27;34.63;;;30.77;;
23163;SDS011;31429;42.674;23.350;2023-04-08T03:44:29;35.23;;;30.07;;
23163;SDS011;31429;42.674;23.350;2023-04-08T03:45:30;34.17;;;28.83;;
23163;SDS011;31429;42.674;23.350;2023-04-08T03:46:31;36.00;;;29.43;;
23163;SDS011;31429;42.674;23.350;2023-04-08T03:47:31;32.63;;;28.13;;
23163;SDS011;31429;42.674;23.350;2023-04-08T03:48:32;36.13;;;29.80;;
23163;SDS011;31429;42.674;23.350;2023-04-08T03:49:33;37.40;;;29.90;;
23163;SDS011;31429;42.674;23.350;2023-04-08T03:50:34;40.03;;;31.17;;
23163;SDS011;31429;42.674;23.350;2023-04-08T03:51:34;37.93;;;30.73;;
23163;SDS011;31429;42.674;23.350;2023-04-08T03:52:35;38.20;;;30.70;;
23163;SDS011;31429;42.674;23.350;2023-04-08T03:53:36;40.70;;;32.03;;
23163;SDS011;31429;42.674;23.350;2023-04-08T03:54:36;38.57;;;29.50;;
23163;SDS011;31429;42.674;23.350;2023-04-08T03:55:37;37.20;;;31.30;;
23163;SDS011;31429;42.674;23.350;2023-04-08T03:56:38;38.87;;;30.90;;
23163;SDS011;31429;42.674;23.350;2023-04-08T03:57:39;36.28;;;30.88;;
23163;SDS011;31429;42.674;23.350;2023-04-08T03:58:40;42.37;;;32.67;;
23163;SDS011;31429;42.674;23.350;2023-04-08T03:59:42;35.03;;;30.37;;
23163;SDS011;31429;42.674;23.350;2023-04-08T04:00:42;37.50;;;30.67;;
23163;SDS011;31429;42.674;23.350;2023-04-08T04:01:43;42.80;;;30.77;;
23163;SDS011;31429;42.674;23.350;2023-04-08T04:02:44;39.47;;;30.97;;
23163;SDS011;31429;42.674;23.350;2023-04-08T04:03:44;40.53;;;31.43;;
23163;SDS011;31429;42.674;23.350;2023-04-08T04:04:45;40.17;;;31.30;;
23163;SDS011;31429;42.674;23.350;2023-04-08T04:05:46;39.57;;;32.03;;
23163;SDS011;31429;42.674;23.350;2023-04-08T04:06:46;35.90;;;30.20;;
23163;SDS011;31429;42.674;23.350;2023-04-08T04:07:47;38.70;;;30.43;;
23163;SDS011;31429;42.674;23.350;2023-04-08T04:08:48;39.37;;;31.03;;
23163;SDS011;31429;42.674;23.350;2023-04-08T04:09:49;43.50;;;32.53;;
23163;SDS011;31429;42.674;23.350;2023-04-08T04:10:53;38.65;;;31.75;;
23163;SDS011;31429;42.674;23.350;2023-04-08T04:11:53;37.43;;;30.43;;
23163;SDS011;31429;42.674;23.350;2023-04-08T04:12:54;40.67;;;31.93;;
23163;SDS011;31429;42.674;23.350;2023-04-08T04:13:55;37.60;;;32.37;;
23163;SDS011;31429;42.674;23.350;2023-04-08T04:14:57;36.60;;;31.80;;
23163;SDS011;31429;42.674;23.350;2023-04-08T04:15:57;41.05;;;32.05;;
23163;SDS011;31429;42.674;23.350;2023-04-08T04:16:58;36.37;;;31.30;;
23163;SDS011;31429;42.674;23.350;2023-04-08T04:17:58;38.57;;;31.43;;
23163;SDS011;31429;42.674;23.350;2023-04-08T04:18:59;37.97;;;31.97;;
23163;SDS011;31429;42.674;23.350;2023-04-08T04:20:02;44.00;;;32.57;;
23163;SDS011;31429;42.674;23.350;2023-04-08T04:21:04;36.35;;;30.40;;
23163;SDS011;31429;42.674;23.350;2023-04-08T04:22:05;40.10;;;31.92;;
23163;SDS011;31429;42.674;23.350;2023-04-08T04:23:05;37.40;;;30.73;;
23163;SDS011;31429;42.674;23.350;2023-04-08T04:24:06;35.70;;;31.40;;
23163;SDS011;31429;42.674;23.350;2023-04-08T04:25:07;36.40;;;30.90;;
23163;SDS011;31429;42.674;23.350;2023-04-08T04:26:08;38.55;;;31.30;;
23163;SDS011;31429;42.674;23.350;2023-04-08T04:27:09;40.23;;;32.17;;
23163;SDS011;31429;42.674;23.350;2023-04-08T04:28:10;37.17;;;31.03;;
23163;SDS011;31429;42.674;23.350;2023-04-08T04:29:10;37.87;;;32.33;;
23163;SDS011;31429;42.674;23.350;2023-04-08T04:30:12;41.67;;;31.90;;
23163;SDS011;31429;42.674;23.350;2023-04-08T04:31:17;38.05;;;31.33;;
23163;SDS011;31429;42.674;23.350;2023-04-08T04:32:19;37.35;;;30.83;;
23163;SDS011;31429;42.674;23.350;2023-04-08T04:33:20;41.03;;;32.73;;
23163;SDS011;31429;42.674;23.350;2023-04-08T04:34:21;38.17;;;32.20;;
23163;SDS011;31429;42.674;23.350;2023-04-08T04:35:21;35.43;;;30.57;;
23163;SDS011;31429;42.674;23.350;2023-04-08T04:36:22;39.80;;;33.73;;
23163;SDS011;31429;42.674;23.350;2023-04-08T04:37:23;39.40;;;32.43;;
23163;SDS011;31429;42.674;23.350;2023-04-08T04:38:23;38.00;;;32.77;;
23163;SDS011;31429;42.674;23.350;2023-04-08T04:39:24;40.47;;;33.43;;
23163;SDS011;31429;42.674;23.350;2023-04-08T04:40:25;39.70;;;31.57;;
23163;SDS011;31429;42.674;23.350;2023-04-08T04:41:26;42.80;;;31.97;;
23163;SDS011;31429;42.674;23.350;2023-04-08T04:42:26;39.53;;;32.17;;
23163;SDS011;31429;42.674;23.350;2023-04-08T04:43:27;41.47;;;33.03;;
23163;SDS011;31429;42.674;23.350;2023-04-08T04:44:27;38.13;;;31.80;;
23163;SDS011;31429;42.674;23.350;2023-04-08T04:45:29;35.97;;;30.57;;
23163;SDS011;31429;42.674;23.350;2023-04-08T04:46:30;37.92;;;32.50;;
23163;SDS011;31429;42.674;23.350;2023-04-08T04:47:31;39.27;;;32.57;;
23163;SDS011;31429;42.674;23.350;2023-04-08T04:48:31;40.30;;;33.57;;
23163;SDS011;31429;42.674;23.350;2023-04-08T04:49:32;103.80;;;74.43;;
23163;SDS011;31429;42.674;23.350;2023-04-08T04:50:33;195.63;;;124.60;;
23163;SDS011;31429;42.674;23.350;2023-04-08T04:51:33;287.00;;;195.20;;
23163;SDS011;31429;42.674;23.350;2023-04-08T04:52:34;260.30;;;174.30;;
23163;SDS011;31429;42.674;23.350;2023-04-08T04:53:36;175.95;;;119.60;;
23163;SDS011;31429;42.674;23.350;2023-04-08T04:54:36;64.40;;;46.27;;
23163;SDS011;31429;42.674;23.350;2023-04-08T04:55:37;108.73;;;77.00;;
23163;SDS011;31429;42.674;23.350;2023-04-08T04:56:37;102.53;;;72.87;;
23163;SDS011;31429;42.674;23.350;2023-04-08T04:57:38;79.77;;;54.33;;
23163;SDS011;31429;42.674;23.350;2023-04-08T04:58:39;272.07;;;185.23;;
23163;SDS011;31429;42.674;23.350;2023-04-08T04:59:39;126.17;;;87.67;;
23163;SDS011;31429;42.674;23.350;2023-04-08T05:00:41;66.90;;;51.00;;
23163;SDS011;31429;42.674;23.350;2023-04-08T05:01:42;229.40;;;151.63;;
23163;SDS011;31429;42.674;23.350;2023-04-08T05:02:43;215.53;;;147.33;;
23163;SDS011;31429;42.674;23.350;2023-04-08T05:03:43;182.80;;;127.07;;
23163;SDS011;31429;42.674;23.350;2023-04-08T05:04:44;89.37;;;64.97;;
23163;SDS011;31429;42.674;23.350;2023-04-08T05:05:49;51.90;;;41.63;;
23163;SDS011;31429;42.674;23.350;2023-04-08T05:06:50;53.17;;;40.30;;
23163;SDS011;31429;42.674;23.350;2023-04-08T05:07:51;53.33;;;38.10;;
23163;SDS011;31429;42.674;23.350;2023-04-08T05:08:52;37.08;;;29.23;;
23163;SDS011;31429;42.674;23.350;2023-04-08T05:09:53;45.00;;;34.77;;
23163;SDS011;31429;42.674;23.350;2023-04-08T05:10:54;26.87;;;23.97;;
23163;SDS011;31429;42.674;23.350;2023-04-08T05:11:55;40.83;;;33.28;;
23163;SDS011;31429;42.674;23.350;2023-04-08T05:12:56;26.07;;;23.37;;
23163;SDS011;31429;42.674;23.350;2023-04-08T05:13:57;36.93;;;31.67;;
23163;SDS011;31429;42.674;23.350;2023-04-08T05:14:57;31.93;;;26.97;;
23163;SDS011;31429;42.674;23.350;2023-04-08T05:16:02;42.00;;;31.98;;
23163;SDS011;31429;42.674;23.350;2023-04-08T05:17:03;31.17;;;26.50;;
23163;SDS011;31429;42.674;23.350;2023-04-08T05:18:04;38.70;;;32.40;;
23163;SDS011;31429;42.674;23.350;2023-04-08T05:19:05;27.87;;;24.70;;
23163;SDS011;31429;42.674;23.350;2023-04-08T05:20:06;38.87;;;29.93;;
23163;SDS011;31429;42.674;23.350;2023-04-08T05:21:07;31.35;;;25.33;;
23163;SDS011;31429;42.674;23.350;2023-04-08T05:22:08;36.77;;;29.33;;
23163;SDS011;31429;42.674;23.350;2023-04-08T05:23:09;29.77;;;25.63;;
23163;SDS011;31429;42.674;23.350;2023-04-08T05:24:10;36.30;;;30.50;;
23163;SDS011;31429;42.674;23.350;2023-04-08T05:25:10;33.40;;;28.50;;
23163;SDS011;31429;42.674;23.350;2023-04-08T05:26:11;43.80;;;31.57;;
23163;SDS011;31429;42.674;23.350;2023-04-08T05:27:12;45.27;;;35.63;;
23163;SDS011;31429;42.674;23.350;2023-04-08T05:28:12;40.70;;;32.23;;
23163;SDS011;31429;42.674;23.350;2023-04-08T05:29:13;34.90;;;29.93;;
23163;SDS011;31429;42.674;23.350;2023-04-08T05:30:14;31.43;;;26.07;;
23163;SDS011;31429;42.674;23.350;2023-04-08T05:31:17;33.38;;;26.05;;
23163;SDS011;31429;42.674;23.350;2023-04-08T05:32:18;36.10;;;28.60;;
23163;SDS011;31429;42.674;23.350;2023-04-08T05:33:19;51.70;;;41.90;;
23163;SDS011;31429;42.674;23.350;2023-04-08T05:34:20;88.13;;;65.03;;
23163;SDS011;31429;42.674;23.350;2023-04-08T05:35:22;112.32;;;81.93;;
23163;SDS011;31429;42.674;23.350;2023-04-08T05:36:23;66.63;;;48.53;;
23163;SDS011;31429;42.674;23.350;2023-04-08T05:37:23;80.70;;;59.50;;
23163;SDS011;31429;42.674;23.350;2023-04-08T05:38:24;53.30;;;40.67;;
23163;SDS011;31429;42.674;23.350;2023-04-08T05:39:25;218.23;;;149.43;;
23163;SDS011;31429;42.674;23.350;2023-04-08T05:40:25;221.63;;;155.37;;
23163;SDS011;31429;42.674;23.350;2023-04-08T05:41:26;299.63;;;211.90;;
23163;SDS011;31429;42.674;23.350;2023-04-08T05:42:27;65.60;;;47.53;;
23163;SDS011;31429;42.674;23.350;2023-04-08T05:43:28;69.23;;;50.57;;
23163;SDS011;31429;42.674;23.350;2023-04-08T05:44:28;64.60;;;49.27;;
23163;SDS011;31429;42.674;23.350;2023-04-08T05:45:29;92.30;;;67.77;;
23163;SDS011;31429;42.674;23.350;2023-04-08T05:46:31;163.50;;;115.50;;
23163;SDS011;31429;42.674;23.350;2023-04-08T05:47:32;177.45;;;123.65;;
23163;SDS011;31429;42.674;23.350;2023-04-08T05:48:32;166.47;;;113.57;;
23163;SDS011;31429;42.674;23.350;2023-04-08T05:49:33;94.83;;;63.70;;
23163;SDS011;31429;42.674;23.350;2023-04-08T05:50:34;72.18;;;53.20;;
23163;SDS011;31429;42.674;23.350;2023-04-08T05:51:35;335.33;;;228.60;;
23163;SDS011;31429;42.674;23.350;2023-04-08T05:52:36;119.37;;;83.90;;
23163;SDS011;31429;42.674;23.350;2023-04-08T05:53:36;60.37;;;46.43;;
23163;SDS011;31429;42.674;23.350;2023-04-08T05:54:37;271.10;;;190.60;;
23163;SDS011;31429;42.674;23.350;2023-04-08T05:55:37;54.03;;;40.20;;